sensor_id;sensor_type;location;lat;lon;timestamp;P1;durP1;ratioP1;P2;durP2;ratioP2
5831;SDS011;50943;51.448;7.646;2023-04-15T00:01:07;19.60;;;9.53;;
5831;SDS011;50943;51.448;7.646;2023-04-15T00:03:37;15.50;;;9.47;;
5831;SDS011;50943;51.448;7.646;2023-04-15T00:06:04;16.13;;;9.20;;
5831;SDS011;50943;51.448;7.646;2023-04-15T00:08:31;16.30;;;8.93;;
5831;SDS011;50943;51.448;7.646;2023-04-15T00:10:58;14.90;;;9.27;;
5831;SDS011;50943;51.448;7.646;2023-04-15T00:13:26;18.10;;;9.43;;
5831;SDS011;50943;51.448;7.646;2023-04-15T00:15:54;17.63;;;9.60;;
5831;SDS011;50943;51.448;7.646;2023-04-15T00:18:20;16.93;;;10.17;;
5831;SDS011;50943;51.448;7.646;2023-04-15T00:20:49;15.10;;;8.60;;
5831;SDS011;50943;51.448;7.646;2023-04-15T00:23:16;15.47;;;9.27;;
5831;SDS011;50943;51.448;7.646;2023-04-15T00:25:43;17.57;;;9.70;;
5831;SDS011;50943;51.448;7.646;2023-04-15T00:28:10;16.20;;;9.70;;
5831;SDS011;50943;51.448;7.646;2023-04-15T00:30:36;16.90;;;10.50;;
5831;SDS011;50943;51.448;7.646;2023-04-15T00:33:03;17.47;;;9.87;;
5831;SDS011;50943;51.448;7.646;2023-04-15T00:35:32;17.47;;;10.73;;
5831;SDS011;50943;51.448;7.646;2023-04-15T00:38:00;21.10;;;11.50;;
5831;SDS011;50943;51.448;7.646;2023-04-15T00:40:26;25.93;;;11.93;;
5831;SDS011;50943;51.448;7.646;2023-04-15T00:42:53;21.87;;;10.33;;
5831;SDS011;50943;51.448;7.646;2023-04-15T00:45:20;22.67;;;11.60;;
5831;SDS011;50943;51.448;7.646;2023-04-15T00:47:47;22.13;;;12.10;;
5831;SDS011;50943;51.448;7.646;2023-04-15T00:50:14;28.80;;;11.87;;
5831;SDS011;50943;51.448;7.646;2023-04-15T00:52:40;20.40;;;11.43;;
5831;SDS011;50943;51.448;7.646;2023-04-15T00:55:09;15.93;;;9.97;;
5831;SDS011;50943;51.448;7.646;2023-04-15T00:57:36;17.30;;;9.90;;
5831;SDS011;50943;51.448;7.646;2023-04-15T01:00:03;16.10;;;9.77;;
5831;SDS011;50943;51.448;7.646;2023-04-15T01:02:32;18.10;;;10.70;;
5831;SDS011;50943;51.448;7.646;2023-04-15T01:05:02;20.43;;;10.33;;
5831;SDS011;50943;51.448;7.646;2023-04-15T01:07:30;23.90;;;9.87;;
5831;SDS011;50943;51.448;7.646;2023-04-15T01:09:57;23.50;;;10.97;;
5831;SDS011;50943;51.448;7.646;2023-04-15T01:12:25;17.50;;;10.07;;
5831;SDS011;50943;51.448;7.646;2023-04-15T01:14:53;23.20;;;11.30;;
5831;SDS011;50943;51.448;7.646;2023-04-15T01:17:21;19.67;;;10.40;;
5831;SDS011;50943;51.448;7.646;2023-04-15T01:19:48;25.43;;;10.53;;
5831;SDS011;50943;51.448;7.646;2023-04-15T01:22:15;19.00;;;10.97;;
5831;SDS011;50943;51.448;7.646;2023-04-15T01:24:42;19.90;;;10.40;;
5831;SDS011;50943;51.448;7.646;2023-04-15T01:27:15;20.43;;;10.47;;
5831;SDS011;50943;51.448;7.646;2023-04-15T01:29:41;20.30;;;9.80;;
5831;SDS011;50943;51.448;7.646;2023-04-15T01:32:08;21.13;;;9.90;;
5831;SDS011;50943;51.448;7.646;2023-04-15T01:34:36;20.27;;;10.10;;
5831;SDS011;50943;51.448;7.646;2023-04-15T01:37:02;18.57;;;9.47;;
5831;SDS011;50943;51.448;7.646;2023-04-15T01:39:29;20.37;;;10.80;;
5831;SDS011;50943;51.448;7.646;2023-04-15T01:41:56;19.87;;;10.23;;
5831;SDS011;50943;51.448;7.646;2023-04-15T01:44:25;18.60;;;9.90;;
5831;SDS011;50943;51.448;7.646;2023-04-15T01:46:52;19.57;;;9.80;;
5831;SDS011;50943;51.448;7.646;2023-04-15T01:49:18;17.57;;;10.37;;
5831;SDS011;50943;51.448;7.646;2023-04-15T01:51:45;27.10;;;11.23;;
5831;SDS011;50943;51.448;7.646;2023-04-15T01:54:12;24.17;;;10.27;;
5831;SDS011;50943;51.448;7.646;2023-04-15T01:56:38;24.03;;;10.30;;
5831;SDS011;50943;51.448;7.646;2023-04-15T01:59:05;18.37;;;11.07;;
5831;SDS011;50943;51.448;7.646;2023-04-15T02:01:35;16.37;;;9.70;;
5831;SDS011;50943;51.448;7.646;2023-04-15T02:04:02;16.33;;;9.93;;
5831;SDS011;50943;51.448;7.646;2023-04-15T02:06:28;16.00;;;10.10;;
5831;SDS011;50943;51.448;7.646;2023-04-15T02:08:57;17.83;;;10.20;;
5831;SDS011;50943;51.448;7.646;2023-04-15T02:11:24;20.10;;;9.80;;
5831;SDS011;50943;51.448;7.646;2023-04-15T02:13:51;26.27;;;10.10;;
5831;SDS011;50943;51.448;7.646;2023-04-15T02:16:18;18.67;;;10.80;;
5831;SDS011;50943;51.448;7.646;2023-04-15T02:18:46;18.10;;;9.90;;
5831;SDS011;50943;51.448;7.646;2023-04-15T02:21:13;16.23;;;9.00;;
5831;SDS011;50943;51.448;7.646;2023-04-15T02:23:41;17.50;;;9.20;;
5831;SDS011;50943;51.448;7.646;2023-04-15T02:26:08;19.07;;;10.03;;
5831;SDS011;50943;51.448;7.646;2023-04-15T02:28:35;21.77;;;9.70;;
5831;SDS011;50943;51.448;7.646;2023-04-15T02:31:04;21.60;;;10.87;;
5831;SDS011;50943;51.448;7.646;2023-04-15T02:33:31;18.57;;;10.33;;
5831;SDS011;50943;51.448;7.646;2023-04-15T02:35:59;18.53;;;10.00;;
5831;SDS011;50943;51.448;7.646;2023-04-15T02:38:26;18.20;;;9.80;;
5831;SDS011;50943;51.448;7.646;2023-04-15T02:40:54;19.60;;;9.13;;
5831;SDS011;50943;51.448;7.646;2023-04-15T02:43:21;19.73;;;10.00;;
5831;SDS011;50943;51.448;7.646;2023-04-15T02:45:47;20.10;;;9.97;;
5831;SDS011;50943;51.448;7.646;2023-04-15T02:48:15;18.97;;;10.50;;
5831;SDS011;50943;51.448;7.646;2023-04-15T02:50:44;19.50;;;9.47;;
5831;SDS011;50943;51.448;7.646;2023-04-15T02:53:12;21.70;;;10.90;;
5831;SDS011;50943;51.448;7.646;2023-04-15T02:55:39;17.73;;;10.63;;
5831;SDS011;50943;51.448;7.646;2023-04-15T02:58:06;20.90;;;11.90;;
5831;SDS011;50943;51.448;7.646;2023-04-15T03:00:33;21.20;;;11.43;;
5831;SDS011;50943;51.448;7.646;2023-04-15T03:03:01;18.07;;;10.40;;
5831;SDS011;50943;51.448;7.646;2023-04-15T03:05:28;20.40;;;10.93;;
5831;SDS011;50943;51.448;7.646;2023-04-15T03:07:55;18.77;;;10.50;;
5831;SDS011;50943;51.448;7.646;2023-04-15T03:10:23;21.50;;;11.50;;
5831;SDS011;50943;51.448;7.646;2023-04-15T03:12:50;18.67;;;10.00;;
5831;SDS011;50943;51.448;7.646;2023-04-15T03:15:16;17.03;;;9.63;;
5831;SDS011;50943;51.448;7.646;2023-04-15T03:17:43;19.47;;;9.77;;
5831;SDS011;50943;51.448;7.646;2023-04-15T03:20:10;27.20;;;11.13;;
5831;SDS011;50943;51.448;7.646;2023-04-15T03:22:37;16.33;;;8.87;;
5831;SDS011;50943;51.448;7.646;2023-04-15T03:25:04;18.10;;;9.10;;
5831;SDS011;50943;51.448;7.646;2023-04-15T03:27:33;18.63;;;10.60;;
5831;SDS011;50943;51.448;7.646;2023-04-15T03:29:59;18.37;;;10.80;;
5831;SDS011;50943;51.448;7.646;2023-04-15T03:32:26;18.53;;;11.10;;
5831;SDS011;50943;51.448;7.646;2023-04-15T03:34:53;17.93;;;10.30;;
5831;SDS011;50943;51.448;7.646;2023-04-15T03:37:19;13.50;;;8.90;;
5831;SDS011;50943;51.448;7.646;2023-04-15T03:39:46;19.83;;;9.10;;
5831;SDS011;50943;51.448;7.646;2023-04-15T03:42:13;16.40;;;8.73;;
5831;SDS011;50943;51.448;7.646;2023-04-15T03:44:41;19.70;;;9.67;;
5831;SDS011;50943;51.448;7.646;2023-04-15T03:47:07;20.40;;;9.43;;
5831;SDS011;50943;51.448;7.646;2023-04-15T03:49:35;17.07;;;8.90;;
5831;SDS011;50943;51.448;7.646;2023-04-15T03:52:01;17.67;;;9.80;;
5831;SDS011;50943;51.448;7.646;2023-04-15T03:54:28;18.33;;;8.63;;
5831;SDS011;50943;51.448;7.646;2023-04-15T03:56:55;17.63;;;9.00;;
5831;SDS011;50943;51.448;7.646;2023-04-15T03:59:22;16.07;;;8.93;;
5831;SDS011;50943;51.448;7.646;2023-04-15T04:01:50;13.33;;;8.77;;
5831;SDS011;50943;51.448;7.646;2023-04-15T04:04:17;16.27;;;9.67;;
5831;SDS011;50943;51.448;7.646;2023-04-15T04:06:43;17.93;;;9.43;;
5831;SDS011;50943;51.448;7.646;2023-04-15T04:09:10;15.07;;;9.07;;
5831;SDS011;50943;51.448;7.646;2023-04-15T04:11:36;17.80;;;9.60;;
5831;SDS011;50943;51.448;7.646;2023-04-15T04:14:03;14.77;;;9.23;;
5831;SDS011;50943;51.448;7.646;2023-04-15T04:16:30;17.33;;;9.17;;
5831;SDS011;50943;51.448;7.646;2023-04-15T04:18:59;15.77;;;9.50;;
5831;SDS011;50943;51.448;7.646;2023-04-15T04:21:25;17.10;;;9.43;;
5831;SDS011;50943;51.448;7.646;2023-04-15T04:23:52;17.00;;;9.63;;
5831;SDS011;50943;51.448;7.646;2023-04-15T04:26:18;16.20;;;8.83;;
5831;SDS011;50943;51.448;7.646;2023-04-15T04:28:45;16.37;;;8.93;;
5831;SDS011;50943;51.448;7.646;2023-04-15T04:31:12;19.30;;;9.80;;
5831;SDS011;50943;51.448;7.646;2023-04-15T04:33:39;20.00;;;9.00;;
5831;SDS011;50943;51.448;7.646;2023-04-15T04:36:08;18.63;;;10.93;;
5831;SDS011;50943;51.448;7.646;2023-04-15T04:38:35;20.77;;;11.37;;
5831;SDS011;50943;51.448;7.646;2023-04-15T04:41:01;18.20;;;10.60;;
5831;SDS011;50943;51.448;7.646;2023-04-15T04:43:28;20.53;;;10.37;;
5831;SDS011;50943;51.448;7.646;2023-04-15T04:45:55;23.07;;;8.40;;
5831;SDS011;50943;51.448;7.646;2023-04-15T04:48:21;20.10;;;9.80;;
5831;SDS011;50943;51.448;7.646;2023-04-15T04:50:48;14.80;;;8.70;;
5831;SDS011;50943;51.448;7.646;2023-04-15T04:53:17;17.17;;;9.70;;
5831;SDS011;50943;51.448;7.646;2023-04-15T04:55:44;13.30;;;7.63;;
5831;SDS011;50943;51.448;7.646;2023-04-15T04:58:10;21.90;;;9.03;;
5831;SDS011;50943;51.448;7.646;2023-04-15T05:00:37;14.40;;;7.90;;
5831;SDS011;50943;51.448;7.646;2023-04-15T05:03:03;16.77;;;8.33;;
5831;SDS011;50943;51.448;7.646;2023-04-15T05:05:30;14.80;;;9.30;;
5831;SDS011;50943;51.448;7.646;2023-04-15T05:07:57;15.27;;;9.17;;
5831;SDS011;50943;51.448;7.646;2023-04-15T05:10:25;15.80;;;9.27;;
5831;SDS011;50943;51.448;7.646;2023-04-15T05:12:52;14.60;;;9.30;;
5831;SDS011;50943;51.448;7.646;2023-04-15T05:15:19;21.77;;;10.20;;
5831;SDS011;50943;51.448;7.646;2023-04-15T05:17:47;20.23;;;10.17;;
5831;SDS011;50943;51.448;7.646;2023-04-15T05:20:13;19.33;;;10.63;;
5831;SDS011;50943;51.448;7.646;2023-04-15T05:22:40;26.40;;;10.80;;
5831;SDS011;50943;51.448;7.646;2023-04-15T05:25:07;21.50;;;10.10;;
5831;SDS011;50943;51.448;7.646;2023-04-15T05:27:36;25.30;;;11.10;;
5831;SDS011;50943;51.448;7.646;2023-04-15T05:30:06;17.07;;;10.20;;
5831;SDS011;50943;51.448;7.646;2023-04-15T05:32:33;18.07;;;10.50;;
5831;SDS011;50943;51.448;7.646;2023-04-15T05:35:00;17.93;;;10.03;;
5831;SDS011;50943;51.448;7.646;2023-04-15T05:37:27;21.43;;;9.73;;
5831;SDS011;50943;51.448;7.646;2023-04-15T05:39:53;19.70;;;11.10;;
5831;SDS011;50943;51.448;7.646;2023-04-15T05:42:20;22.57;;;10.23;;
5831;SDS011;50943;51.448;7.646;2023-04-15T05:44:48;18.13;;;10.10;;
5831;SDS011;50943;51.448;7.646;2023-04-15T05:47:15;17.17;;;10.43;;
5831;SDS011;50943;51.448;7.646;2023-04-15T05:49:42;16.70;;;10.10;;
5831;SDS011;50943;51.448;7.646;2023-04-15T05:52:09;19.07;;;10.07;;
5831;SDS011;50943;51.448;7.646;2023-04-15T05:54:35;16.10;;;10.63;;
5831;SDS011;50943;51.448;7.646;2023-04-15T05:57:02;17.80;;;9.90;;
5831;SDS011;50943;51.448;7.646;2023-04-15T05:59:29;18.33;;;10.50;;
5831;SDS011;50943;51.448;7.646;2023-04-15T06:01:57;15.87;;;10.10;;
5831;SDS011;50943;51.448;7.646;2023-04-15T06:04:24;20.90;;;10.30;;
5831;SDS011;50943;51.448;7.646;2023-04-15T06:06:50;17.90;;;12.70;;
5831;SDS011;50943;51.448;7.646;2023-04-15T06:09:17;19.87;;;12.60;;
5831;SDS011;50943;51.448;7.646;2023-04-15T06:11:44;18.30;;;11.40;;
5831;SDS011;50943;51.448;7.646;2023-04-15T06:14:11;16.87;;;10.60;;
5831;SDS011;50943;51.448;7.646;2023-04-15T06:16:37;18.87;;;10.87;;
5831;SDS011;50943;51.448;7.646;2023-04-15T06:19:05;23.50;;;10.40;;
5831;SDS011;50943;51.448;7.646;2023-04-15T06:21:32;18.70;;;11.27;;
5831;SDS011;50943;51.448;7.646;2023-04-15T06:23:59;17.87;;;11.00;;
5831;SDS011;50943;51.448;7.646;2023-04-15T06:26:26;19.73;;;11.67;;
5831;SDS011;50943;51.448;7.646;2023-04-15T06:28:53;17.47;;;10.63;;
5831;SDS011;50943;51.448;7.646;2023-04-15T06:31:20;19.87;;;11.47;;
5831;SDS011;50943;51.448;7.646;2023-04-15T06:33:47;19.17;;;11.70;;
5831;SDS011;50943;51.448;7.646;2023-04-15T06:36:15;16.47;;;11.03;;
5831;SDS011;50943;51.448;7.646;2023-04-15T06:38:41;16.70;;;10.17;;
5831;SDS011;50943;51.448;7.646;2023-04-15T06:41:08;19.00;;;10.90;;
5831;SDS011;50943;51.448;7.646;2023-04-15T06:43:35;19.10;;;11.00;;
5831;SDS011;50943;51.448;7.646;2023-04-15T06:46:01;20.27;;;11.57;;
5831;SDS011;50943;51.448;7.646;2023-04-15T06:48:28;19.90;;;11.20;;
5831;SDS011;50943;51.448;7.646;2023-04-15T06:50:54;20.90;;;11.97;;
5831;SDS011;50943;51.448;7.646;2023-04-15T06:53:23;22.70;;;10.77;;
5831;SDS011;50943;51.448;7.646;2023-04-15T06:55:50;20.73;;;10.70;;
5831;SDS011;50943;51.448;7.646;2023-04-15T06:58:17;19.27;;;10.77;;
5831;SDS011;50943;51.448;7.646;2023-04-15T07:00:43;17.97;;;11.17;;
5831;SDS011;50943;51.448;7.646;2023-04-15T07:03:10;23.70;;;13.00;;
5831;SDS011;50943;51.448;7.646;2023-04-15T07:05:39;22.10;;;12.57;;
5831;SDS011;50943;51.448;7.646;2023-04-15T07:08:05;21.33;;;12.20;;
5831;SDS011;50943;51.448;7.646;2023-04-15T07:10:35;19.13;;;12.30;;
5831;SDS011;50943;51.448;7.646;2023-04-15T07:13:02;21.67;;;12.23;;
5831;SDS011;50943;51.448;7.646;2023-04-15T07:15:29;19.17;;;12.23;;
5831;SDS011;50943;51.448;7.646;2023-04-15T07:17:56;23.40;;;13.07;;
5831;SDS011;50943;51.448;7.646;2023-04-15T07:20:22;19.57;;;12.23;;
5831;SDS011;50943;51.448;7.646;2023-04-15T07:22:49;21.77;;;13.73;;
5831;SDS011;50943;51.448;7.646;2023-04-15T07:25:16;24.73;;;15.93;;
5831;SDS011;50943;51.448;7.646;2023-04-15T07:27:44;29.20;;;16.70;;
5831;SDS011;50943;51.448;7.646;2023-04-15T07:30:11;23.57;;;14.90;;
5831;SDS011;50943;51.448;7.646;2023-04-15T07:32:38;27.27;;;17.93;;
5831;SDS011;50943;51.448;7.646;2023-04-15T07:35:05;31.00;;;18.30;;
5831;SDS011;50943;51.448;7.646;2023-04-15T07:37:32;29.87;;;18.57;;
5831;SDS011;50943;51.448;7.646;2023-04-15T07:39:59;22.60;;;15.17;;
5831;SDS011;50943;51.448;7.646;2023-04-15T07:42:25;25.40;;;15.83;;
5831;SDS011;50943;51.448;7.646;2023-04-15T07:44:54;23.37;;;15.13;;
5831;SDS011;50943;51.448;7.646;2023-04-15T07:47:21;23.47;;;13.83;;
5831;SDS011;50943;51.448;7.646;2023-04-15T07:49:48;22.43;;;14.33;;
5831;SDS011;50943;51.448;7.646;2023-04-15T07:52:15;26.37;;;15.07;;
5831;SDS011;50943;51.448;7.646;2023-04-15T07:54:42;23.03;;;13.37;;
5831;SDS011;50943;51.448;7.646;2023-04-15T07:57:08;22.67;;;14.10;;
5831;SDS011;50943;51.448;7.646;2023-04-15T07:59:35;23.63;;;13.30;;
5831;SDS011;50943;51.448;7.646;2023-04-15T08:02:03;20.33;;;12.60;;
5831;SDS011;50943;51.448;7.646;2023-04-15T08:04:30;20.73;;;13.53;;
5831;SDS011;50943;51.448;7.646;2023-04-15T08:06:57;16.80;;;9.93;;
5831;SDS011;50943;51.448;7.646;2023-04-15T08:09:24;16.23;;;10.43;;
5831;SDS011;50943;51.448;7.646;2023-04-15T08:11:51;19.53;;;10.80;;
5831;SDS011;50943;51.448;7.646;2023-04-15T08:14:18;16.17;;;10.40;;
5831;SDS011;50943;51.448;7.646;2023-04-15T08:16:45;15.83;;;9.73;;
5831;SDS011;50943;51.448;7.646;2023-04-15T08:19:14;17.03;;;10.17;;
5831;SDS011;50943;51.448;7.646;2023-04-15T08:21:40;14.50;;;10.03;;
5831;SDS011;50943;51.448;7.646;2023-04-15T08:24:07;19.40;;;10.03;;
5831;SDS011;50943;51.448;7.646;2023-04-15T08:26:33;17.00;;;9.63;;
5831;SDS011;50943;51.448;7.646;2023-04-15T08:29:00;15.70;;;10.40;;
5831;SDS011;50943;51.448;7.646;2023-04-15T08:31:27;13.80;;;9.00;;
5831;SDS011;50943;51.448;7.646;2023-04-15T08:33:55;17.20;;;10.67;;
5831;SDS011;50943;51.448;7.646;2023-04-15T08:36:23;18.63;;;11.37;;
5831;SDS011;50943;51.448;7.646;2023-04-15T08:38:51;19.77;;;12.07;;
5831;SDS011;50943;51.448;7.646;2023-04-15T08:41:20;18.20;;;10.73;;
5831;SDS011;50943;51.448;7.646;2023-04-15T08:43:51;15.67;;;9.23;;
5831;SDS011;50943;51.448;7.646;2023-04-15T08:46:18;12.97;;;7.80;;
5831;SDS011;50943;51.448;7.646;2023-04-15T08:48:46;13.90;;;8.70;;
5831;SDS011;50943;51.448;7.646;2023-04-15T08:51:13;12.00;;;8.00;;
5831;SDS011;50943;51.448;7.646;2023-04-15T08:53:42;14.43;;;7.90;;
5831;SDS011;50943;51.448;7.646;2023-04-15T08:56:11;13.70;;;7.93;;
5831;SDS011;50943;51.448;7.646;2023-04-15T08:58:39;13.70;;;8.87;;
5831;SDS011;50943;51.448;7.646;2023-04-15T09:01:06;15.43;;;8.70;;
5831;SDS011;50943;51.448;7.646;2023-04-15T09:03:33;13.80;;;8.30;;
5831;SDS011;50943;51.448;7.646;2023-04-15T09:06:00;14.57;;;9.60;;
5831;SDS011;50943;51.448;7.646;2023-04-15T09:08:29;12.97;;;8.43;;
5831;SDS011;50943;51.448;7.646;2023-04-15T09:10:57;16.07;;;8.90;;
5831;SDS011;50943;51.448;7.646;2023-04-15T09:13:24;17.03;;;10.23;;
5831;SDS011;50943;51.448;7.646;2023-04-15T09:15:50;14.70;;;8.93;;
5831;SDS011;50943;51.448;7.646;2023-04-15T09:18:26;15.90;;;9.63;;
5831;SDS011;50943;51.448;7.646;2023-04-15T09:20:53;16.27;;;9.83;;
5831;SDS011;50943;51.448;7.646;2023-04-15T09:23:21;14.40;;;9.40;;
5831;SDS011;50943;51.448;7.646;2023-04-15T09:25:48;15.43;;;10.13;;
5831;SDS011;50943;51.448;7.646;2023-04-15T09:28:22;17.90;;;9.50;;
5831;SDS011;50943;51.448;7.646;2023-04-15T09:30:50;13.83;;;9.17;;
5831;SDS011;50943;51.448;7.646;2023-04-15T09:33:17;16.80;;;9.50;;
5831;SDS011;50943;51.448;7.646;2023-04-15T09:35:50;15.77;;;10.40;;
5831;SDS011;50943;51.448;7.646;2023-04-15T09:38:21;15.07;;;10.27;;
5831;SDS011;50943;51.448;7.646;2023-04-15T09:40:48;17.07;;;11.17;;
5831;SDS011;50943;51.448;7.646;2023-04-15T09:43:15;16.97;;;10.37;;
5831;SDS011;50943;51.448;7.646;2023-04-15T09:45:46;15.70;;;10.37;;
5831;SDS011;50943;51.448;7.646;2023-04-15T09:48:14;17.03;;;11.47;;
5831;SDS011;50943;51.448;7.646;2023-04-15T09:50:42;15.23;;;10.57;;
5831;SDS011;50943;51.448;7.646;2023-04-15T09:53:09;15.03;;;9.97;;
5831;SDS011;50943;51.448;7.646;2023-04-15T09:55:36;16.83;;;11.20;;
5831;SDS011;50943;51.448;7.646;2023-04-15T09:58:07;16.60;;;10.20;;
5831;SDS011;50943;51.448;7.646;2023-04-15T10:00:36;15.10;;;10.20;;
5831;SDS011;50943;51.448;7.646;2023-04-15T10:03:04;16.40;;;10.20;;
5831;SDS011;50943;51.448;7.646;2023-04-15T10:05:31;13.03;;;9.07;;
5831;SDS011;50943;51.448;7.646;2023-04-15T10:07:58;15.30;;;8.90;;
5831;SDS011;50943;51.448;7.646;2023-04-15T10:10:26;13.17;;;8.70;;
5831;SDS011;50943;51.448;7.646;2023-04-15T10:12:53;17.30;;;9.93;;
5831;SDS011;50943;51.448;7.646;2023-04-15T10:15:19;15.70;;;9.43;;
5831;SDS011;50943;51.448;7.646;2023-04-15T10:17:47;14.40;;;8.00;;
5831;SDS011;50943;51.448;7.646;2023-04-15T10:20:16;13.80;;;8.53;;
5831;SDS011;50943;51.448;7.646;2023-04-15T10:22:43;12.27;;;8.13;;
5831;SDS011;50943;51.448;7.646;2023-04-15T10:25:10;12.70;;;8.30;;
5831;SDS011;50943;51.448;7.646;2023-04-15T10:27:38;11.90;;;7.07;;
5831;SDS011;50943;51.448;7.646;2023-04-15T10:30:06;10.90;;;7.40;;
5831;SDS011;50943;51.448;7.646;2023-04-15T10:32:33;11.83;;;7.43;;
5831;SDS011;50943;51.448;7.646;2023-04-15T10:35:02;13.97;;;7.00;;
5831;SDS011;50943;51.448;7.646;2023-04-15T10:37:33;14.10;;;7.40;;
5831;SDS011;50943;51.448;7.646;2023-04-15T10:40:04;13.60;;;7.30;;
5831;SDS011;50943;51.448;7.646;2023-04-15T10:42:49;12.57;;;7.10;;
5831;SDS011;50943;51.448;7.646;2023-04-15T10:45:15;12.80;;;7.67;;
5831;SDS011;50943;51.448;7.646;2023-04-15T10:47:44;14.10;;;7.30;;
5831;SDS011;50943;51.448;7.646;2023-04-15T10:50:11;12.73;;;7.73;;
5831;SDS011;50943;51.448;7.646;2023-04-15T10:52:39;13.33;;;8.10;;
5831;SDS011;50943;51.448;7.646;2023-04-15T10:55:11;13.60;;;7.77;;
5831;SDS011;50943;51.448;7.646;2023-04-15T10:57:38;12.87;;;8.10;;
5831;SDS011;50943;51.448;7.646;2023-04-15T11:00:09;12.97;;;7.70;;
5831;SDS011;50943;51.448;7.646;2023-04-15T11:02:38;12.80;;;7.47;;
5831;SDS011;50943;51.448;7.646;2023-04-15T11:05:06;15.57;;;8.43;;
5831;SDS011;50943;51.448;7.646;2023-04-15T11:07:38;14.33;;;7.87;;
5831;SDS011;50943;51.448;7.646;2023-04-15T11:13:16;12.40;;;7.77;;
5831;SDS011;50943;51.448;7.646;2023-04-15T11:15:44;11.80;;;7.20;;
5831;SDS011;50943;51.448;7.646;2023-04-15T11:18:12;14.00;;;7.83;;
5831;SDS011;50943;51.448;7.646;2023-04-15T11:20:40;13.17;;;8.23;;
5831;SDS011;50943;51.448;7.646;2023-04-15T11:23:10;15.50;;;8.50;;
5831;SDS011;50943;51.448;7.646;2023-04-15T11:25:37;16.10;;;8.07;;
5831;SDS011;50943;51.448;7.646;2023-04-15T11:28:03;12.40;;;7.53;;
5831;SDS011;50943;51.448;7.646;2023-04-15T11:30:32;12.37;;;6.80;;
5831;SDS011;50943;51.448;7.646;2023-04-15T11:33:00;13.53;;;7.87;;
5831;SDS011;50943;51.448;7.646;2023-04-15T11:35:28;11.70;;;6.90;;
5831;SDS011;50943;51.448;7.646;2023-04-15T11:37:55;12.23;;;6.67;;
5831;SDS011;50943;51.448;7.646;2023-04-15T11:40:24;11.20;;;6.63;;
5831;SDS011;50943;51.448;7.646;2023-04-15T11:43:02;13.23;;;7.07;;
5831;SDS011;50943;51.448;7.646;2023-04-15T11:45:29;12.83;;;7.50;;
5831;SDS011;50943;51.448;7.646;2023-04-15T11:48:03;14.80;;;7.87;;
5831;SDS011;50943;51.448;7.646;2023-04-15T11:50:30;10.60;;;6.50;;
5831;SDS011;50943;51.448;7.646;2023-04-15T11:52:57;11.40;;;6.93;;
5831;SDS011;50943;51.448;7.646;2023-04-15T11:55:26;12.27;;;6.87;;
5831;SDS011;50943;51.448;7.646;2023-04-15T11:58:04;10.90;;;7.13;;
5831;SDS011;50943;51.448;7.646;2023-04-15T12:00:33;10.67;;;6.83;;
5831;SDS011;50943;51.448;7.646;2023-04-15T12:03:13;10.93;;;7.20;;
5831;SDS011;50943;51.448;7.646;2023-04-15T12:08:57;11.37;;;6.70;;
5831;SDS011;50943;51.448;7.646;2023-04-15T12:11:31;14.13;;;6.40;;
5831;SDS011;50943;51.448;7.646;2023-04-15T12:14:21;9.63;;;6.23;;
5831;SDS011;50943;51.448;7.646;2023-04-15T12:16:50;12.63;;;6.47;;
5831;SDS011;50943;51.448;7.646;2023-04-15T12:19:21;8.40;;;5.77;;
5831;SDS011;50943;51.448;7.646;2023-04-15T12:21:50;10.77;;;6.93;;
5831;SDS011;50943;51.448;7.646;2023-04-15T12:24:19;13.57;;;6.57;;
5831;SDS011;50943;51.448;7.646;2023-04-15T12:26:49;11.03;;;7.00;;
5831;SDS011;50943;51.448;7.646;2023-04-15T12:29:16;12.23;;;7.27;;
5831;SDS011;50943;51.448;7.646;2023-04-15T12:31:46;10.03;;;6.80;;
5831;SDS011;50943;51.448;7.646;2023-04-15T12:34:14;12.50;;;7.00;;
5831;SDS011;50943;51.448;7.646;2023-04-15T12:36:41;10.90;;;7.40;;
5831;SDS011;50943;51.448;7.646;2023-04-15T12:39:08;13.03;;;7.47;;
5831;SDS011;50943;51.448;7.646;2023-04-15T12:41:35;13.90;;;7.80;;
5831;SDS011;50943;51.448;7.646;2023-04-15T12:44:03;12.27;;;7.30;;
5831;SDS011;50943;51.448;7.646;2023-04-15T12:46:29;12.57;;;7.10;;
5831;SDS011;50943;51.448;7.646;2023-04-15T12:48:56;11.60;;;7.07;;
5831;SDS011;50943;51.448;7.646;2023-04-15T12:51:23;10.93;;;6.70;;
5831;SDS011;50943;51.448;7.646;2023-04-15T12:53:51;12.20;;;7.60;;
5831;SDS011;50943;51.448;7.646;2023-04-15T12:56:17;11.73;;;7.77;;
5831;SDS011;50943;51.448;7.646;2023-04-15T12:58:44;12.13;;;7.17;;
5831;SDS011;50943;51.448;7.646;2023-04-15T13:01:12;13.37;;;8.97;;
5831;SDS011;50943;51.448;7.646;2023-04-15T13:03:38;14.03;;;8.60;;
5831;SDS011;50943;51.448;7.646;2023-04-15T13:06:05;14.97;;;8.87;;
5831;SDS011;50943;51.448;7.646;2023-04-15T13:08:32;14.33;;;8.97;;
5831;SDS011;50943;51.448;7.646;2023-04-15T13:10:58;13.60;;;8.20;;
5831;SDS011;50943;51.448;7.646;2023-04-15T13:13:25;13.50;;;9.00;;
5831;SDS011;50943;51.448;7.646;2023-04-15T13:15:52;14.13;;;8.70;;
5831;SDS011;50943;51.448;7.646;2023-04-15T13:18:20;12.70;;;8.50;;
5831;SDS011;50943;51.448;7.646;2023-04-15T13:20:47;17.00;;;8.50;;
5831;SDS011;50943;51.448;7.646;2023-04-15T13:23:14;14.67;;;8.70;;
5831;SDS011;50943;51.448;7.646;2023-04-15T13:25:41;16.90;;;9.30;;
5831;SDS011;50943;51.448;7.646;2023-04-15T13:28:07;13.20;;;8.77;;
5831;SDS011;50943;51.448;7.646;2023-04-15T13:30:36;14.17;;;7.97;;
5831;SDS011;50943;51.448;7.646;2023-04-15T13:33:03;14.93;;;9.57;;
5831;SDS011;50943;51.448;7.646;2023-04-15T13:35:31;15.90;;;9.27;;
5831;SDS011;50943;51.448;7.646;2023-04-15T13:37:58;14.07;;;8.13;;
5831;SDS011;50943;51.448;7.646;2023-04-15T13:40:25;14.70;;;8.13;;
5831;SDS011;50943;51.448;7.646;2023-04-15T13:42:51;14.83;;;8.23;;
5831;SDS011;50943;51.448;7.646;2023-04-15T13:45:18;13.70;;;7.47;;
5831;SDS011;50943;51.448;7.646;2023-04-15T13:47:45;11.50;;;7.33;;
5831;SDS011;50943;51.448;7.646;2023-04-15T13:50:11;14.33;;;8.80;;
5831;SDS011;50943;51.448;7.646;2023-04-15T13:52:39;14.53;;;7.73;;
5831;SDS011;50943;51.448;7.646;2023-04-15T13:55:08;12.53;;;8.00;;
5831;SDS011;50943;51.448;7.646;2023-04-15T13:57:35;16.00;;;8.70;;
5831;SDS011;50943;51.448;7.646;2023-04-15T14:00:01;12.70;;;8.23;;
5831;SDS011;50943;51.448;7.646;2023-04-15T14:02:30;14.87;;;8.57;;
5831;SDS011;50943;51.448;7.646;2023-04-15T14:04:56;14.20;;;8.30;;
5831;SDS011;50943;51.448;7.646;2023-04-15T14:07:23;14.17;;;8.60;;
5831;SDS011;50943;51.448;7.646;2023-04-15T14:09:51;17.07;;;8.80;;
5831;SDS011;50943;51.448;7.646;2023-04-15T14:12:17;13.30;;;7.60;;
5831;SDS011;50943;51.448;7.646;2023-04-15T14:14:44;11.87;;;7.23;;
5831;SDS011;50943;51.448;7.646;2023-04-15T14:17:11;11.30;;;7.00;;
5831;SDS011;50943;51.448;7.646;2023-04-15T14:19:37;10.70;;;7.13;;
5831;SDS011;50943;51.448;7.646;2023-04-15T14:22:04;11.50;;;6.90;;
5831;SDS011;50943;51.448;7.646;2023-04-15T14:24:30;10.20;;;6.60;;
5831;SDS011;50943;51.448;7.646;2023-04-15T14:26:58;13.40;;;7.10;;
5831;SDS011;50943;51.448;7.646;2023-04-15T14:29:26;12.17;;;7.47;;
5831;SDS011;50943;51.448;7.646;2023-04-15T14:31:53;10.50;;;7.00;;
5831;SDS011;50943;51.448;7.646;2023-04-15T14:34:21;11.30;;;6.83;;
5831;SDS011;50943;51.448;7.646;2023-04-15T14:36:49;12.47;;;6.67;;
5831;SDS011;50943;51.448;7.646;2023-04-15T14:39:16;9.03;;;5.90;;
5831;SDS011;50943;51.448;7.646;2023-04-15T14:41:43;9.90;;;6.17;;
5831;SDS011;50943;51.448;7.646;2023-04-15T14:44:11;10.07;;;6.13;;
5831;SDS011;50943;51.448;7.646;2023-04-15T14:46:37;11.13;;;6.27;;
5831;SDS011;50943;51.448;7.646;2023-04-15T14:49:04;8.50;;;5.10;;
5831;SDS011;50943;51.448;7.646;2023-04-15T14:51:31;10.23;;;5.50;;